Esmond, South Dakota
Current Conditions -  °F | °C
As of 3:55 AM on Tuesday 27 Jan 2015 (Local Time) from KHON Reporting Station
Clear Clear  
Wind Chill: 26°   Ceiling: Unl
Heat Index: 26°   Visibility: 7mi
Dew Point: 25°   Wind: 3mph
Humidity: 96%   Direction: 150°SSE
Pressure: 30.02"   Gusts: NA
Location:  44.3062°N, 97.8068°W
Report Text: KHON 270955Z AUTO 15003KT 7SM CLR M03/M04 A3002 RMK AO2 SLP178 I1001 T10331039
Loading
Personal Weather Stations






























Interactive Weather Map New forecast layout! Learn more

10-Day Weather Forecast

Advertisements
Track Severe Weather on mobile